sensor_id;sensor_type;location;lat;lon;timestamp;temperature;humidity
29939;DHT22;16799;50.844;5.304;2023-05-16T00:00:18;10.10;99.90
29939;DHT22;16799;50.844;5.304;2023-05-16T00:02:44;10.20;99.90
29939;DHT22;16799;50.844;5.304;2023-05-16T00:05:10;10.30;99.90
29939;DHT22;16799;50.844;5.304;2023-05-16T00:07:41;10.30;99.90
29939;DHT22;16799;50.844;5.304;2023-05-16T00:10:07;10.30;99.90
29939;DHT22;16799;50.844;5.304;2023-05-16T00:12:32;10.40;99.90
29939;DHT22;16799;50.844;5.304;2023-05-16T00:15:01;10.40;99.90
29939;DHT22;16799;50.844;5.304;2023-05-16T00:17:27;10.50;99.90
29939;DHT22;16799;50.844;5.304;2023-05-16T00:19:53;10.50;99.90
29939;DHT22;16799;50.844;5.304;2023-05-16T00:22:25;10.60;99.90
29939;DHT22;16799;50.844;5.304;2023-05-16T00:24:51;10.50;99.90
29939;DHT22;16799;50.844;5.304;2023-05-16T00:27:17;10.50;99.90
29939;DHT22;16799;50.844;5.304;2023-05-16T00:29:43;10.50;99.90
29939;DHT22;16799;50.844;5.304;2023-05-16T00:32:08;10.50;99.90
29939;DHT22;16799;50.844;5.304;2023-05-16T00:34:34;10.50;99.90
29939;DHT22;16799;50.844;5.304;2023-05-16T00:37:00;10.50;99.90
29939;DHT22;16799;50.844;5.304;2023-05-16T00:39:26;10.50;99.90
29939;DHT22;16799;50.844;5.304;2023-05-16T00:41:52;10.50;99.90
29939;DHT22;16799;50.844;5.304;2023-05-16T00:44:17;10.40;99.90
29939;DHT22;16799;50.844;5.304;2023-05-16T00:46:43;10.40;99.90
29939;DHT22;16799;50.844;5.304;2023-05-16T00:49:09;10.40;99.90
29939;DHT22;16799;50.844;5.304;2023-05-16T00:51:36;10.60;99.90
29939;DHT22;16799;50.844;5.304;2023-05-16T00:54:03;10.60;99.90
29939;DHT22;16799;50.844;5.304;2023-05-16T00:56:29;10.60;99.90
29939;DHT22;16799;50.844;5.304;2023-05-16T00:58:55;10.50;99.90
29939;DHT22;16799;50.844;5.304;2023-05-16T01:01:22;10.60;99.90
29939;DHT22;16799;50.844;5.304;2023-05-16T01:03:49;10.60;99.90
29939;DHT22;16799;50.844;5.304;2023-05-16T01:06:15;10.50;99.90
29939;DHT22;16799;50.844;5.304;2023-05-16T01:08:41;10.60;99.90
29939;DHT22;16799;50.844;5.304;2023-05-16T01:16:45;10.70;99.90
29939;DHT22;16799;50.844;5.304;2023-05-16T01:25:38;10.60;99.90
29939;DHT22;16799;50.844;5.304;2023-05-16T01:28:09;10.50;99.90
29939;DHT22;16799;50.844;5.304;2023-05-16T01:30:37;10.50;99.90
29939;DHT22;16799;50.844;5.304;2023-05-16T01:33:03;10.40;99.90
29939;DHT22;16799;50.844;5.304;2023-05-16T01:35:29;10.30;99.90
29939;DHT22;16799;50.844;5.304;2023-05-16T01:43:14;10.00;99.90
29939;DHT22;16799;50.844;5.304;2023-05-16T01:45:52;10.00;99.90
29939;DHT22;16799;50.844;5.304;2023-05-16T01:48:22;9.90;99.90
29939;DHT22;16799;50.844;5.304;2023-05-16T01:50:55;9.90;99.90
29939;DHT22;16799;50.844;5.304;2023-05-16T01:53:27;9.90;99.90
29939;DHT22;16799;50.844;5.304;2023-05-16T01:55:56;9.90;99.90
29939;DHT22;16799;50.844;5.304;2023-05-16T01:58:25;9.90;99.90
29939;DHT22;16799;50.844;5.304;2023-05-16T02:00:52;9.90;99.90
29939;DHT22;16799;50.844;5.304;2023-05-16T02:03:18;9.90;99.90
29939;DHT22;16799;50.844;5.304;2023-05-16T02:05:44;10.00;99.90
29939;DHT22;16799;50.844;5.304;2023-05-16T02:08:10;10.00;99.90
29939;DHT22;16799;50.844;5.304;2023-05-16T02:10:35;10.10;99.90
29939;DHT22;16799;50.844;5.304;2023-05-16T02:13:01;9.90;99.90
29939;DHT22;16799;50.844;5.304;2023-05-16T02:15:27;10.00;99.90
29939;DHT22;16799;50.844;5.304;2023-05-16T02:17:53;9.80;99.90
29939;DHT22;16799;50.844;5.304;2023-05-16T02:20:18;9.80;99.90
29939;DHT22;16799;50.844;5.304;2023-05-16T02:22:44;9.70;99.90
29939;DHT22;16799;50.844;5.304;2023-05-16T02:25:13;9.70;99.90
29939;DHT22;16799;50.844;5.304;2023-05-16T02:27:39;9.60;99.90
29939;DHT22;16799;50.844;5.304;2023-05-16T02:30:06;9.60;99.90
29939;DHT22;16799;50.844;5.304;2023-05-16T02:32:32;9.70;99.90
29939;DHT22;16799;50.844;5.304;2023-05-16T02:34:58;9.80;99.90
29939;DHT22;16799;50.844;5.304;2023-05-16T02:37:23;9.80;99.90
29939;DHT22;16799;50.844;5.304;2023-05-16T02:39:49;9.80;99.90
29939;DHT22;16799;50.844;5.304;2023-05-16T02:42:15;9.70;99.90
29939;DHT22;16799;50.844;5.304;2023-05-16T02:44:40;9.60;99.90
29939;DHT22;16799;50.844;5.304;2023-05-16T02:47:06;9.40;99.90
29939;DHT22;16799;50.844;5.304;2023-05-16T02:49:32;9.30;99.90
29939;DHT22;16799;50.844;5.304;2023-05-16T02:51:57;9.20;99.90
29939;DHT22;16799;50.844;5.304;2023-05-16T02:54:23;9.00;99.90
29939;DHT22;16799;50.844;5.304;2023-05-16T02:56:49;9.00;99.90
29939;DHT22;16799;50.844;5.304;2023-05-16T02:59:14;9.00;99.90
29939;DHT22;16799;50.844;5.304;2023-05-16T03:01:40;8.90;99.90
29939;DHT22;16799;50.844;5.304;2023-05-16T03:04:06;8.70;99.90
29939;DHT22;16799;50.844;5.304;2023-05-16T03:06:31;8.70;99.90
29939;DHT22;16799;50.844;5.304;2023-05-16T03:08:57;8.60;99.90
29939;DHT22;16799;50.844;5.304;2023-05-16T03:11:23;8.50;99.90
29939;DHT22;16799;50.844;5.304;2023-05-16T03:13:50;8.60;99.90
29939;DHT22;16799;50.844;5.304;2023-05-16T03:16:15;8.50;99.90
29939;DHT22;16799;50.844;5.304;2023-05-16T03:18:42;8.40;99.90
29939;DHT22;16799;50.844;5.304;2023-05-16T03:21:07;8.30;99.90
29939;DHT22;16799;50.844;5.304;2023-05-16T03:23:33;8.20;99.90
29939;DHT22;16799;50.844;5.304;2023-05-16T03:25:59;8.10;99.90
29939;DHT22;16799;50.844;5.304;2023-05-16T03:28:26;8.10;99.90
29939;DHT22;16799;50.844;5.304;2023-05-16T03:30:51;8.10;99.90
29939;DHT22;16799;50.844;5.304;2023-05-16T03:33:17;8.00;99.90
29939;DHT22;16799;50.844;5.304;2023-05-16T03:35:44;8.00;99.90
29939;DHT22;16799;50.844;5.304;2023-05-16T03:38:09;7.90;99.90
29939;DHT22;16799;50.844;5.304;2023-05-16T03:40:35;7.80;99.90
29939;DHT22;16799;50.844;5.304;2023-05-16T03:43:01;7.60;99.90
29939;DHT22;16799;50.844;5.304;2023-05-16T03:45:27;7.60;99.90
29939;DHT22;16799;50.844;5.304;2023-05-16T03:47:53;7.50;99.90
29939;DHT22;16799;50.844;5.304;2023-05-16T03:50:19;7.50;99.90
29939;DHT22;16799;50.844;5.304;2023-05-16T03:52:44;7.40;99.90
29939;DHT22;16799;50.844;5.304;2023-05-16T03:55:10;7.40;99.90
29939;DHT22;16799;50.844;5.304;2023-05-16T03:57:38;7.50;99.90
29939;DHT22;16799;50.844;5.304;2023-05-16T04:00:04;7.50;99.90
29939;DHT22;16799;50.844;5.304;2023-05-16T04:02:33;7.60;99.90
29939;DHT22;16799;50.844;5.304;2023-05-16T04:04:58;7.60;99.90
29939;DHT22;16799;50.844;5.304;2023-05-16T04:07:24;7.80;99.90
29939;DHT22;16799;50.844;5.304;2023-05-16T04:09:50;7.90;99.90
29939;DHT22;16799;50.844;5.304;2023-05-16T04:12:16;7.90;99.90
29939;DHT22;16799;50.844;5.304;2023-05-16T04:14:42;7.90;99.90
29939;DHT22;16799;50.844;5.304;2023-05-16T04:17:08;8.00;99.90
29939;DHT22;16799;50.844;5.304;2023-05-16T04:19:34;8.00;99.90
29939;DHT22;16799;50.844;5.304;2023-05-16T04:22:00;7.90;99.90
29939;DHT22;16799;50.844;5.304;2023-05-16T04:24:26;8.00;99.90
29939;DHT22;16799;50.844;5.304;2023-05-16T04:26:53;8.00;99.90
29939;DHT22;16799;50.844;5.304;2023-05-16T04:29:19;8.10;99.90
29939;DHT22;16799;50.844;5.304;2023-05-16T04:31:46;8.00;99.90
29939;DHT22;16799;50.844;5.304;2023-05-16T04:34:12;8.20;99.90
29939;DHT22;16799;50.844;5.304;2023-05-16T04:36:38;8.10;99.90
29939;DHT22;16799;50.844;5.304;2023-05-16T04:39:03;8.10;99.90
29939;DHT22;16799;50.844;5.304;2023-05-16T04:41:29;8.00;99.90
29939;DHT22;16799;50.844;5.304;2023-05-16T04:43:55;8.10;99.90
29939;DHT22;16799;50.844;5.304;2023-05-16T04:46:20;8.20;99.90
29939;DHT22;16799;50.844;5.304;2023-05-16T04:48:46;8.40;99.90
29939;DHT22;16799;50.844;5.304;2023-05-16T04:51:12;8.60;99.90
29939;DHT22;16799;50.844;5.304;2023-05-16T04:53:37;8.60;99.90
29939;DHT22;16799;50.844;5.304;2023-05-16T04:56:03;8.60;99.90
29939;DHT22;16799;50.844;5.304;2023-05-16T04:58:30;8.40;99.90
29939;DHT22;16799;50.844;5.304;2023-05-16T05:00:56;8.40;99.90
29939;DHT22;16799;50.844;5.304;2023-05-16T05:03:22;8.50;99.90
29939;DHT22;16799;50.844;5.304;2023-05-16T05:05:48;8.50;99.90
29939;DHT22;16799;50.844;5.304;2023-05-16T05:08:14;8.50;99.90
29939;DHT22;16799;50.844;5.304;2023-05-16T05:10:40;8.50;99.90
29939;DHT22;16799;50.844;5.304;2023-05-16T05:13:06;8.50;99.90
29939;DHT22;16799;50.844;5.304;2023-05-16T05:15:32;8.50;99.90
29939;DHT22;16799;50.844;5.304;2023-05-16T05:17:58;8.50;99.90
29939;DHT22;16799;50.844;5.304;2023-05-16T05:20:23;8.50;99.90
29939;DHT22;16799;50.844;5.304;2023-05-16T05:22:49;8.60;99.90
29939;DHT22;16799;50.844;5.304;2023-05-16T05:25:15;8.70;99.90
29939;DHT22;16799;50.844;5.304;2023-05-16T05:27:40;8.80;99.90
29939;DHT22;16799;50.844;5.304;2023-05-16T05:30:07;8.80;99.90
29939;DHT22;16799;50.844;5.304;2023-05-16T05:32:32;8.80;99.90
29939;DHT22;16799;50.844;5.304;2023-05-16T05:34:58;8.80;99.90
29939;DHT22;16799;50.844;5.304;2023-05-16T05:37:25;8.70;99.90
29939;DHT22;16799;50.844;5.304;2023-05-16T05:39:51;8.70;99.90
29939;DHT22;16799;50.844;5.304;2023-05-16T05:42:17;8.80;99.90
29939;DHT22;16799;50.844;5.304;2023-05-16T05:44:42;9.00;99.90
29939;DHT22;16799;50.844;5.304;2023-05-16T05:47:08;9.30;99.90
29939;DHT22;16799;50.844;5.304;2023-05-16T05:49:34;9.50;99.90
29939;DHT22;16799;50.844;5.304;2023-05-16T05:52:00;9.50;99.90
29939;DHT22;16799;50.844;5.304;2023-05-16T05:54:26;9.40;99.90
29939;DHT22;16799;50.844;5.304;2023-05-16T05:56:52;9.50;99.90
29939;DHT22;16799;50.844;5.304;2023-05-16T05:59:17;9.80;99.90
29939;DHT22;16799;50.844;5.304;2023-05-16T06:01:43;9.90;99.90
29939;DHT22;16799;50.844;5.304;2023-05-16T06:04:09;10.00;99.90
29939;DHT22;16799;50.844;5.304;2023-05-16T06:06:36;10.20;99.90
29939;DHT22;16799;50.844;5.304;2023-05-16T06:09:02;10.30;99.90
29939;DHT22;16799;50.844;5.304;2023-05-16T06:11:28;10.40;99.90
29939;DHT22;16799;50.844;5.304;2023-05-16T06:13:53;10.50;99.90
29939;DHT22;16799;50.844;5.304;2023-05-16T06:16:22;10.60;99.90
29939;DHT22;16799;50.844;5.304;2023-05-16T06:18:48;10.60;99.90
29939;DHT22;16799;50.844;5.304;2023-05-16T06:21:14;10.80;99.90
29939;DHT22;16799;50.844;5.304;2023-05-16T06:23:39;10.90;99.90
29939;DHT22;16799;50.844;5.304;2023-05-16T06:26:05;11.20;99.90
29939;DHT22;16799;50.844;5.304;2023-05-16T06:28:31;11.50;99.90
29939;DHT22;16799;50.844;5.304;2023-05-16T06:30:56;11.60;99.90
29939;DHT22;16799;50.844;5.304;2023-05-16T06:33:22;11.80;99.90
29939;DHT22;16799;50.844;5.304;2023-05-16T06:35:48;12.10;99.90
29939;DHT22;16799;50.844;5.304;2023-05-16T06:38:14;12.00;99.90
29939;DHT22;16799;50.844;5.304;2023-05-16T06:40:40;11.90;99.90
29939;DHT22;16799;50.844;5.304;2023-05-16T06:43:06;11.90;99.90
29939;DHT22;16799;50.844;5.304;2023-05-16T06:45:32;12.10;99.90
29939;DHT22;16799;50.844;5.304;2023-05-16T06:47:57;12.30;99.90
29939;DHT22;16799;50.844;5.304;2023-05-16T06:50:23;12.40;99.90
29939;DHT22;16799;50.844;5.304;2023-05-16T06:52:49;12.30;99.90
29939;DHT22;16799;50.844;5.304;2023-05-16T06:55:14;12.50;99.90
29939;DHT22;16799;50.844;5.304;2023-05-16T06:57:40;12.60;99.90
29939;DHT22;16799;50.844;5.304;2023-05-16T07:00:06;12.70;99.90
29939;DHT22;16799;50.844;5.304;2023-05-16T07:02:33;12.80;99.90
29939;DHT22;16799;50.844;5.304;2023-05-16T07:04:58;12.80;99.90
29939;DHT22;16799;50.844;5.304;2023-05-16T07:07:24;13.00;99.90
29939;DHT22;16799;50.844;5.304;2023-05-16T07:09:50;13.10;99.90
29939;DHT22;16799;50.844;5.304;2023-05-16T07:12:15;13.10;99.90
29939;DHT22;16799;50.844;5.304;2023-05-16T07:14:41;13.20;99.90
29939;DHT22;16799;50.844;5.304;2023-05-16T07:17:08;13.10;99.90
29939;DHT22;16799;50.844;5.304;2023-05-16T07:19:34;13.20;99.90
29939;DHT22;16799;50.844;5.304;2023-05-16T07:22:00;13.30;99.90
29939;DHT22;16799;50.844;5.304;2023-05-16T07:24:25;13.40;99.90
29939;DHT22;16799;50.844;5.304;2023-05-16T07:26:51;13.60;99.90
29939;DHT22;16799;50.844;5.304;2023-05-16T07:29:16;13.70;99.90
29939;DHT22;16799;50.844;5.304;2023-05-16T07:31:42;14.00;99.90
29939;DHT22;16799;50.844;5.304;2023-05-16T07:34:09;13.80;99.90
29939;DHT22;16799;50.844;5.304;2023-05-16T07:36:35;13.80;99.90
29939;DHT22;16799;50.844;5.304;2023-05-16T07:39:01;13.80;99.90
29939;DHT22;16799;50.844;5.304;2023-05-16T07:41:28;14.00;99.90
29939;DHT22;16799;50.844;5.304;2023-05-16T07:43:54;14.40;99.90
29939;DHT22;16799;50.844;5.304;2023-05-16T07:46:19;14.20;98.10
29939;DHT22;16799;50.844;5.304;2023-05-16T07:48:45;14.10;97.00
29939;DHT22;16799;50.844;5.304;2023-05-16T07:51:11;14.10;98.90
29939;DHT22;16799;50.844;5.304;2023-05-16T07:53:36;14.00;98.10
29939;DHT22;16799;50.844;5.304;2023-05-16T07:56:02;13.80;96.80
29939;DHT22;16799;50.844;5.304;2023-05-16T07:58:28;13.60;99.30
29939;DHT22;16799;50.844;5.304;2023-05-16T08:00:53;13.60;99.90
29939;DHT22;16799;50.844;5.304;2023-05-16T08:03:19;13.60;99.90
29939;DHT22;16799;50.844;5.304;2023-05-16T08:05:45;13.60;96.80
29939;DHT22;16799;50.844;5.304;2023-05-16T08:08:11;13.90;99.80
29939;DHT22;16799;50.844;5.304;2023-05-16T08:10:36;13.80;98.70
29939;DHT22;16799;50.844;5.304;2023-05-16T08:13:02;13.80;98.00
29939;DHT22;16799;50.844;5.304;2023-05-16T08:15:29;13.80;99.00
29939;DHT22;16799;50.844;5.304;2023-05-16T08:17:58;14.00;97.10
29939;DHT22;16799;50.844;5.304;2023-05-16T08:20:25;14.30;95.40
29939;DHT22;16799;50.844;5.304;2023-05-16T08:22:50;14.50;95.40
29939;DHT22;16799;50.844;5.304;2023-05-16T08:25:17;14.70;96.70
29939;DHT22;16799;50.844;5.304;2023-05-16T08:27:44;15.10;96.70
29939;DHT22;16799;50.844;5.304;2023-05-16T08:30:10;15.50;92.40
29939;DHT22;16799;50.844;5.304;2023-05-16T08:32:37;15.80;92.70
29939;DHT22;16799;50.844;5.304;2023-05-16T08:35:03;16.00;92.00
29939;DHT22;16799;50.844;5.304;2023-05-16T08:37:29;15.90;94.00
29939;DHT22;16799;50.844;5.304;2023-05-16T08:39:55;15.90;95.50
29939;DHT22;16799;50.844;5.304;2023-05-16T08:42:20;16.50;92.60
29939;DHT22;16799;50.844;5.304;2023-05-16T08:44:46;16.80;91.90
29939;DHT22;16799;50.844;5.304;2023-05-16T08:47:18;16.70;90.20
29939;DHT22;16799;50.844;5.304;2023-05-16T08:49:48;16.90;89.30
29939;DHT22;16799;50.844;5.304;2023-05-16T08:52:18;17.10;90.50
29939;DHT22;16799;50.844;5.304;2023-05-16T08:54:45;16.20;85.70
29939;DHT22;16799;50.844;5.304;2023-05-16T08:57:11;16.20;91.60
29939;DHT22;16799;50.844;5.304;2023-05-16T08:59:38;16.50;90.90
29939;DHT22;16799;50.844;5.304;2023-05-16T09:02:05;16.50;88.60
29939;DHT22;16799;50.844;5.304;2023-05-16T09:04:31;16.30;87.40
29939;DHT22;16799;50.844;5.304;2023-05-16T09:06:56;16.30;87.80
29939;DHT22;16799;50.844;5.304;2023-05-16T09:09:23;16.10;90.10
29939;DHT22;16799;50.844;5.304;2023-05-16T09:11:49;16.30;85.60
29939;DHT22;16799;50.844;5.304;2023-05-16T09:14:14;16.50;86.60
29939;DHT22;16799;50.844;5.304;2023-05-16T09:16:40;16.70;86.10
29939;DHT22;16799;50.844;5.304;2023-05-16T09:19:06;16.50;82.90
29939;DHT22;16799;50.844;5.304;2023-05-16T09:21:33;16.60;87.20
29939;DHT22;16799;50.844;5.304;2023-05-16T09:24:09;16.70;86.20
29939;DHT22;16799;50.844;5.304;2023-05-16T09:26:36;16.50;87.40
29939;DHT22;16799;50.844;5.304;2023-05-16T09:29:10;16.30;83.20
29939;DHT22;16799;50.844;5.304;2023-05-16T09:31:36;16.40;90.70
29939;DHT22;16799;50.844;5.304;2023-05-16T09:34:11;16.30;85.40
29939;DHT22;16799;50.844;5.304;2023-05-16T09:36:37;16.40;91.00
29939;DHT22;16799;50.844;5.304;2023-05-16T09:39:04;16.50;86.90
29939;DHT22;16799;50.844;5.304;2023-05-16T09:41:34;16.50;87.90
29939;DHT22;16799;50.844;5.304;2023-05-16T09:44:03;16.50;85.50
29939;DHT22;16799;50.844;5.304;2023-05-16T09:46:33;16.30;83.00
29939;DHT22;16799;50.844;5.304;2023-05-16T09:48:59;16.30;82.40
29939;DHT22;16799;50.844;5.304;2023-05-16T09:51:25;16.70;90.80
29939;DHT22;16799;50.844;5.304;2023-05-16T09:53:51;17.10;88.10
29939;DHT22;16799;50.844;5.304;2023-05-16T09:56:17;17.60;83.40
29939;DHT22;16799;50.844;5.304;2023-05-16T09:58:43;17.80;82.70
29939;DHT22;16799;50.844;5.304;2023-05-16T10:01:11;17.90;75.70
29939;DHT22;16799;50.844;5.304;2023-05-16T10:03:39;17.50;76.90
29939;DHT22;16799;50.844;5.304;2023-05-16T10:06:06;17.20;79.30
29939;DHT22;16799;50.844;5.304;2023-05-16T10:08:33;17.20;84.80
29939;DHT22;16799;50.844;5.304;2023-05-16T10:11:05;17.20;81.30
29939;DHT22;16799;50.844;5.304;2023-05-16T10:13:33;16.80;81.20
29939;DHT22;16799;50.844;5.304;2023-05-16T10:16:04;17.00;83.30
29939;DHT22;16799;50.844;5.304;2023-05-16T10:18:31;17.00;78.80
29939;DHT22;16799;50.844;5.304;2023-05-16T10:21:04;17.30;83.70
29939;DHT22;16799;50.844;5.304;2023-05-16T10:23:32;17.70;81.20
29939;DHT22;16799;50.844;5.304;2023-05-16T10:26:01;18.20;77.90
29939;DHT22;16799;50.844;5.304;2023-05-16T10:28:28;18.80;82.80
29939;DHT22;16799;50.844;5.304;2023-05-16T10:30:54;18.50;76.50
29939;DHT22;16799;50.844;5.304;2023-05-16T10:33:20;18.30;76.20
29939;DHT22;16799;50.844;5.304;2023-05-16T10:35:47;18.70;75.70
29939;DHT22;16799;50.844;5.304;2023-05-16T10:38:15;19.60;77.40
29939;DHT22;16799;50.844;5.304;2023-05-16T10:40:42;20.20;74.20
29939;DHT22;16799;50.844;5.304;2023-05-16T10:43:08;20.60;72.90
29939;DHT22;16799;50.844;5.304;2023-05-16T10:45:40;21.30;71.30
29939;DHT22;16799;50.844;5.304;2023-05-16T10:48:06;21.70;68.20
29939;DHT22;16799;50.844;5.304;2023-05-16T10:50:39;22.60;68.70
29939;DHT22;16799;50.844;5.304;2023-05-16T10:53:19;21.80;62.20
29939;DHT22;16799;50.844;5.304;2023-05-16T10:58:45;23.20;61.20
29939;DHT22;16799;50.844;5.304;2023-05-16T11:01:24;24.20;67.10
29939;DHT22;16799;50.844;5.304;2023-05-16T11:04:05;23.70;57.00
29939;DHT22;16799;50.844;5.304;2023-05-16T11:09:06;24.90;55.30
29939;DHT22;16799;50.844;5.304;2023-05-16T11:11:57;25.50;55.90
29939;DHT22;16799;50.844;5.304;2023-05-16T11:14:28;24.60;54.90
29939;DHT22;16799;50.844;5.304;2023-05-16T11:19:53;22.00;55.90
29939;DHT22;16799;50.844;5.304;2023-05-16T11:27:25;18.90;62.70
29939;DHT22;16799;50.844;5.304;2023-05-16T11:29:52;19.60;68.00
29939;DHT22;16799;50.844;5.304;2023-05-16T11:32:19;19.70;63.80
29939;DHT22;16799;50.844;5.304;2023-05-16T11:34:49;19.80;67.50
29939;DHT22;16799;50.844;5.304;2023-05-16T11:37:16;19.90;65.90
29939;DHT22;16799;50.844;5.304;2023-05-16T11:39:44;20.40;65.30
29939;DHT22;16799;50.844;5.304;2023-05-16T11:42:09;22.30;65.50
29939;DHT22;16799;50.844;5.304;2023-05-16T11:44:35;24.40;60.00
29939;DHT22;16799;50.844;5.304;2023-05-16T11:47:01;26.50;56.60
29939;DHT22;16799;50.844;5.304;2023-05-16T11:49:30;28.20;51.10
29939;DHT22;16799;50.844;5.304;2023-05-16T11:51:56;27.40;48.30
29939;DHT22;16799;50.844;5.304;2023-05-16T11:54:24;26.30;48.60
29939;DHT22;16799;50.844;5.304;2023-05-16T11:56:50;25.80;51.90
29939;DHT22;16799;50.844;5.304;2023-05-16T11:59:17;25.70;51.90
29939;DHT22;16799;50.844;5.304;2023-05-16T12:01:43;26.50;47.10
29939;DHT22;16799;50.844;5.304;2023-05-16T12:04:09;27.60;47.70
29939;DHT22;16799;50.844;5.304;2023-05-16T12:06:36;28.10;44.40
29939;DHT22;16799;50.844;5.304;2023-05-16T12:09:03;29.10;46.80
29939;DHT22;16799;50.844;5.304;2023-05-16T12:11:42;30.70;45.30
29939;DHT22;16799;50.844;5.304;2023-05-16T12:14:10;30.80;38.20
29939;DHT22;16799;50.844;5.304;2023-05-16T12:16:37;30.00;40.20
29939;DHT22;16799;50.844;5.304;2023-05-16T12:19:07;27.80;42.50
29939;DHT22;16799;50.844;5.304;2023-05-16T12:21:34;25.70;43.30
29939;DHT22;16799;50.844;5.304;2023-05-16T12:24:01;24.30;43.80
29939;DHT22;16799;50.844;5.304;2023-05-16T12:26:28;24.30;48.20
29939;DHT22;16799;50.844;5.304;2023-05-16T12:29:02;25.80;45.40
29939;DHT22;16799;50.844;5.304;2023-05-16T12:31:30;27.60;44.10
29939;DHT22;16799;50.844;5.304;2023-05-16T12:33:57;26.40;40.90
29939;DHT22;16799;50.844;5.304;2023-05-16T12:36:23;24.40;44.50
29939;DHT22;16799;50.844;5.304;2023-05-16T12:38:49;25.30;48.80
29939;DHT22;16799;50.844;5.304;2023-05-16T12:41:21;26.80;44.60
29939;DHT22;16799;50.844;5.304;2023-05-16T12:43:49;27.90;43.80
29939;DHT22;16799;50.844;5.304;2023-05-16T12:46:15;27.80;42.60
29939;DHT22;16799;50.844;5.304;2023-05-16T12:48:42;27.70;40.80
29939;DHT22;16799;50.844;5.304;2023-05-16T12:51:16;27.80;44.20
29939;DHT22;16799;50.844;5.304;2023-05-16T12:53:47;26.40;41.50
29939;DHT22;16799;50.844;5.304;2023-05-16T12:56:14;24.80;44.40
29939;DHT22;16799;50.844;5.304;2023-05-16T12:58:43;24.10;48.80
29939;DHT22;16799;50.844;5.304;2023-05-16T13:01:09;23.90;47.10
29939;DHT22;16799;50.844;5.304;2023-05-16T13:03:35;23.20;48.00
29939;DHT22;16799;50.844;5.304;2023-05-16T13:06:01;23.50;49.10
29939;DHT22;16799;50.844;5.304;2023-05-16T13:08:28;24.80;47.30
29939;DHT22;16799;50.844;5.304;2023-05-16T13:10:54;25.60;46.60
29939;DHT22;16799;50.844;5.304;2023-05-16T13:13:20;24.20;46.70
29939;DHT22;16799;50.844;5.304;2023-05-16T13:15:45;23.30;46.10
29939;DHT22;16799;50.844;5.304;2023-05-16T13:18:12;23.10;47.50
29939;DHT22;16799;50.844;5.304;2023-05-16T13:20:38;23.20;51.40
29939;DHT22;16799;50.844;5.304;2023-05-16T13:23:04;23.00;47.90
29939;DHT22;16799;50.844;5.304;2023-05-16T13:25:30;23.00;49.50
29939;DHT22;16799;50.844;5.304;2023-05-16T13:27:56;23.40;49.80
29939;DHT22;16799;50.844;5.304;2023-05-16T13:30:22;23.60;48.60
29939;DHT22;16799;50.844;5.304;2023-05-16T13:32:49;23.70;51.50
29939;DHT22;16799;50.844;5.304;2023-05-16T13:35:14;23.60;49.60
29939;DHT22;16799;50.844;5.304;2023-05-16T13:37:40;25.60;49.70
29939;DHT22;16799;50.844;5.304;2023-05-16T13:40:06;27.20;46.30
29939;DHT22;16799;50.844;5.304;2023-05-16T13:42:38;27.20;42.80
29939;DHT22;16799;50.844;5.304;2023-05-16T13:45:05;27.40;43.70
29939;DHT22;16799;50.844;5.304;2023-05-16T13:47:31;27.20;44.30
29939;DHT22;16799;50.844;5.304;2023-05-16T13:49:59;26.00;43.80
29939;DHT22;16799;50.844;5.304;2023-05-16T13:52:30;24.30;46.30
29939;DHT22;16799;50.844;5.304;2023-05-16T13:54:56;23.70;48.40
29939;DHT22;16799;50.844;5.304;2023-05-16T13:57:22;23.00;48.80
29939;DHT22;16799;50.844;5.304;2023-05-16T13:59:48;22.70;50.10
29939;DHT22;16799;50.844;5.304;2023-05-16T14:02:14;22.60;51.20
29939;DHT22;16799;50.844;5.304;2023-05-16T14:04:39;22.00;49.00
29939;DHT22;16799;50.844;5.304;2023-05-16T14:07:05;22.10;50.40
29939;DHT22;16799;50.844;5.304;2023-05-16T14:09:31;22.30;50.90
29939;DHT22;16799;50.844;5.304;2023-05-16T14:11:59;22.20;50.30
29939;DHT22;16799;50.844;5.304;2023-05-16T14:14:27;21.60;52.20
29939;DHT22;16799;50.844;5.304;2023-05-16T14:16:52;21.40;52.00
29939;DHT22;16799;50.844;5.304;2023-05-16T14:19:18;20.70;52.90
29939;DHT22;16799;50.844;5.304;2023-05-16T14:21:43;20.80;54.40
29939;DHT22;16799;50.844;5.304;2023-05-16T14:24:09;20.70;56.30
29939;DHT22;16799;50.844;5.304;2023-05-16T14:26:36;20.80;54.30
29939;DHT22;16799;50.844;5.304;2023-05-16T14:29:01;21.10;54.40
29939;DHT22;16799;50.844;5.304;2023-05-16T14:31:27;20.90;52.70
29939;DHT22;16799;50.844;5.304;2023-05-16T14:33:53;20.90;54.30
29939;DHT22;16799;50.844;5.304;2023-05-16T14:36:18;21.00;53.50
29939;DHT22;16799;50.844;5.304;2023-05-16T14:38:44;20.90;53.80
29939;DHT22;16799;50.844;5.304;2023-05-16T14:41:10;20.50;51.00
29939;DHT22;16799;50.844;5.304;2023-05-16T14:43:36;20.10;52.30
29939;DHT22;16799;50.844;5.304;2023-05-16T14:46:02;20.40;55.20
29939;DHT22;16799;50.844;5.304;2023-05-16T14:48:28;20.90;54.90
29939;DHT22;16799;50.844;5.304;2023-05-16T14:50:54;21.10;52.90
29939;DHT22;16799;50.844;5.304;2023-05-16T14:53:20;22.10;51.70
29939;DHT22;16799;50.844;5.304;2023-05-16T14:55:46;23.40;47.50
29939;DHT22;16799;50.844;5.304;2023-05-16T14:58:12;23.60;49.40
29939;DHT22;16799;50.844;5.304;2023-05-16T15:00:38;23.10;49.10
29939;DHT22;16799;50.844;5.304;2023-05-16T15:03:03;22.60;50.20
29939;DHT22;16799;50.844;5.304;2023-05-16T15:05:29;21.80;50.10
29939;DHT22;16799;50.844;5.304;2023-05-16T15:07:55;21.10;51.70
29939;DHT22;16799;50.844;5.304;2023-05-16T15:10:20;21.10;53.30
29939;DHT22;16799;50.844;5.304;2023-05-16T15:12:46;20.90;51.30
29939;DHT22;16799;50.844;5.304;2023-05-16T15:15:12;21.10;52.40
29939;DHT22;16799;50.844;5.304;2023-05-16T15:17:39;21.50;53.30
29939;DHT22;16799;50.844;5.304;2023-05-16T15:20:07;21.50;52.30
29939;DHT22;16799;50.844;5.304;2023-05-16T15:22:34;21.50;53.70
29939;DHT22;16799;50.844;5.304;2023-05-16T15:25:00;21.80;54.10
29939;DHT22;16799;50.844;5.304;2023-05-16T15:27:27;22.00;51.30
29939;DHT22;16799;50.844;5.304;2023-05-16T15:29:52;22.50;51.60
29939;DHT22;16799;50.844;5.304;2023-05-16T15:32:18;22.60;49.60
29939;DHT22;16799;50.844;5.304;2023-05-16T15:34:44;22.70;50.80
29939;DHT22;16799;50.844;5.304;2023-05-16T15:37:09;22.80;51.20
29939;DHT22;16799;50.844;5.304;2023-05-16T15:39:35;22.70;50.80
29939;DHT22;16799;50.844;5.304;2023-05-16T15:42:01;22.80;50.40
29939;DHT22;16799;50.844;5.304;2023-05-16T15:44:31;22.30;50.70
29939;DHT22;16799;50.844;5.304;2023-05-16T15:46:56;21.50;51.40
29939;DHT22;16799;50.844;5.304;2023-05-16T15:49:22;20.40;52.40
29939;DHT22;16799;50.844;5.304;2023-05-16T15:51:49;20.40;54.80
29939;DHT22;16799;50.844;5.304;2023-05-16T15:54:15;20.30;55.20
29939;DHT22;16799;50.844;5.304;2023-05-16T15:56:41;19.80;53.60
29939;DHT22;16799;50.844;5.304;2023-05-16T15:59:07;19.60;55.50
29939;DHT22;16799;50.844;5.304;2023-05-16T16:01:32;19.90;55.40